Time;durP1;ratioP1;P1;durP2;ratioP2;P2;SDS_P1;SDS_P2;PMS_P1;PMS_P2;Temp;Humidity;BMP_temperature;BMP_pressure;BME280_temperature;BME280_humidity;BME280_pressure;Samples;Min_cycle;Max_cycle;Signal;HPM_P1;HPM_P2
2022/08/04 00:02:32;;;;;;;6.80;3.95;;;;;;;23.16;49.07;100822.91;7398276;19;20019;-69
2022/08/04 00:05:06;;;;;;;4.55;3.95;;;;;;;23.12;49.26;100825.91;7396230;19;20481;-69
2022/08/04 00:07:41;;;;;;;3.80;3.50;;;;;;;23.07;49.37;100820.88;7396536;19;20484;-68
2022/08/04 00:10:11;;;;;;;4.20;3.90;;;;;;;23.01;49.49;100816.81;7399233;19;20086;-70
2022/08/04 00:12:44;;;;;;;6.25;3.97;;;;;;;22.99;49.50;100823.25;7398529;19;20014;-69
2022/08/04 00:15:15;;;;;;;5.05;4.18;;;;;;;22.93;49.54;100825.41;7396722;19;20018;-69
2022/08/04 00:17:47;;;;;;;4.22;3.92;;;;;;;22.90;49.90;100825.63;7396549;19;20026;-69
2022/08/04 00:20:21;;;;;;;6.13;4.30;;;;;;;22.86;49.66;100829.50;7397745;19;20492;-69
2022/08/04 00:22:50;;;;;;;;;;;;;;;22.81;49.74;100820.97;7398255;19;20022;-69
2022/08/04 00:25:18;;;;;;;5.30;4.32;;;;;;;22.76;49.32;100823.09;7397901;19;19914;-68
2022/08/04 00:27:48;;;;;;;5.13;4.63;;;;;;;22.72;49.40;100816.25;7395774;19;20035;-69
2022/08/04 00:30:16;;;;;;;4.82;4.25;;;;;;;22.69;49.64;100819.16;7395439;19;20498;-69
2022/08/04 00:32:45;;;;;;;6.68;4.53;;;;;;;22.66;49.74;100822.03;7397342;19;20019;-69
2022/08/04 00:35:18;;;;;;;7.75;4.75;;;;;;;22.63;50.19;100822.28;7397262;19;20011;-69
2022/08/04 00:37:48;;;;;;;5.40;4.90;;;;;;;22.58;50.26;100815.44;7395993;19;20023;-69
2022/08/04 00:40:25;;;;;;;5.30;4.88;;;;;;;22.54;50.09;100813.94;7397117;19;20023;-69
2022/08/04 00:43:07;;;;;;;5.53;5.03;;;;;;;22.49;50.24;100813.41;7395095;19;20504;-69
2022/08/04 00:46:02;;;;;;;7.40;4.50;;;;;;;22.44;50.17;100811.09;7396909;19;20074;-69
2022/08/04 00:48:47;;;;;;;5.70;4.65;;;;;;;22.39;49.96;100809.69;7395008;19;20401;-70
2022/08/04 00:51:27;;;;;;;7.13;4.78;;;;;;;22.34;50.49;100815.31;7396399;19;20372;-69
2022/08/04 00:54:08;;;;;;;7.95;5.10;;;;;;;22.31;50.67;100820.88;7397366;19;20035;-69
2022/08/04 00:57:09;;;;;;;5.75;5.05;;;;;;;22.28;50.64;100821.97;7396527;19;20014;-69
2022/08/04 00:59:56;;;;;;;6.35;4.93;;;;;;;22.25;50.36;100814.13;7392505;19;20035;-69
2022/08/04 01:02:37;;;;;;;6.07;4.82;;;;;;;22.23;51.17;100818.75;7395888;19;20018;-69
2022/08/04 01:05:07;;;;;;;5.55;5.00;;;;;;;22.21;51.32;100819.81;7394669;19;20010;-69
2022/08/04 01:07:59;;;;;;;5.13;4.70;;;;;;;22.16;51.51;100814.78;7394777;19;20023;-69
2022/08/04 01:10:39;;;;;;;5.30;4.82;;;;;;;22.12;51.49;100815.97;7396071;19;20078;-69
2022/08/04 01:13:23;;;;;;;6.70;5.10;;;;;;;22.08;51.51;100814.50;7396770;19;20014;-69
2022/08/04 01:15:59;;;;;;;5.60;5.00;;;;;;;22.03;51.66;100813.94;7395867;19;20082;-69
2022/08/04 01:18:41;;;;;;;6.10;4.93;;;;;;;21.99;51.66;100812.44;7395838;19;20488;-69
2022/08/04 01:21:36;;;;;;;5.05;4.57;;;;;;;21.96;52.20;100818.84;7396610;19;20070;-69
2022/08/04 01:24:34;;;;;;;5.18;4.30;;;;;;;21.91;52.23;100811.16;7393412;19;20014;-69
2022/08/04 01:27:11;;;;;;;5.25;4.32;;;;;;;21.88;52.17;100813.19;7393330;19;20031;-69
2022/08/04 01:29:50;;;;;;;4.88;4.47;;;;;;;21.84;52.66;100811.66;7399205;19;20023;-70
2022/08/04 01:32:22;;;;;;;7.25;4.13;;;;;;;21.80;52.56;100809.22;7398373;19;20018;-70
2022/08/04 01:34:54;;;;;;;5.72;5.13;;;;;;;21.76;52.52;100807.72;7396003;19;20366;-69
2022/08/04 01:37:34;;;;;;;5.43;4.28;;;;;;;21.72;52.91;100816.88;7394767;19;20039;-69
2022/08/04 01:40:06;;;;;;;6.85;4.80;;;;;;;21.67;52.86;100815.50;7395694;19;20022;-69
2022/08/04 01:42:37;;;;;;;5.72;5.00;;;;;;;21.62;53.03;100810.44;7394256;19;20023;-69
2022/08/04 01:45:10;;;;;;;5.88;5.00;;;;;;;21.59;52.90;100813.34;7394231;19;20066;-69
2022/08/04 01:47:41;;;;;;;;;;;;;;;21.54;52.82;100810.94;7394584;19;20022;-69
2022/08/04 01:50:12;;;;;;;7.00;4.97;;;;;;;21.50;53.39;100809.44;7394010;19;19927;-69
2022/08/04 01:52:43;;;;;;;5.70;4.68;;;;;;;21.47;53.25;100814.97;7393584;19;20484;-69
2022/08/04 01:55:14;;;;;;;5.93;5.32;;;;;;;21.43;53.35;100813.47;7395493;19;20014;-69
2022/08/04 01:57:44;;;;;;;7.60;4.80;;;;;;;21.40;54.07;100811.00;7393734;19;20105;-69
2022/08/04 02:00:18;;;;;;;5.13;4.63;;;;;;;21.36;54.32;100809.47;7395238;19;20022;-69
2022/08/04 02:02:47;;;;;;;5.22;4.63;;;;;;;21.31;54.78;100810.66;7393471;19;20028;-69
2022/08/04 02:05:18;;;;;;;5.50;4.95;;;;;;;21.29;55.33;100817.03;7395069;19;20035;-69
2022/08/04 02:08:15;;;;;;;6.82;4.55;;;;;;;21.26;55.79;100811.94;7392738;19;20515;-69
2022/08/04 02:11:01;;;;;;;6.15;4.97;;;;;;;21.25;56.10;100808.38;7394452;19;20489;-69
2022/08/04 02:13:37;;;;;;;4.93;4.53;;;;;;;21.23;56.17;100812.13;7401478;19;20025;-69
2022/08/04 02:16:31;;;;;;;5.90;5.10;;;;;;;21.19;56.96;100806.13;7402124;19;20022;-69
2022/08/04 02:19:06;;;;;;;5.82;4.90;;;;;;;21.16;56.62;100811.66;7402894;19;20074;-69
2022/08/04 02:21:36;;;;;;;5.55;4.68;;;;;;;21.13;56.97;100798.53;7402631;19;20480;-70
2022/08/04 02:24:08;;;;;;;6.00;4.75;;;;;;;21.12;56.42;100796.81;7400071;19;20090;-69
2022/08/04 02:26:39;;;;;;;7.22;4.50;;;;;;;21.09;56.58;100799.69;7398813;19;20018;-69
2022/08/04 02:29:15;;;;;;;5.18;4.72;;;;;;;21.04;56.50;100796.47;7399359;19;20032;-69
2022/08/04 02:31:51;;;;;;;6.22;4.97;;;;;;;20.99;56.77;100802.94;7398499;19;20014;-69
2022/08/04 02:34:27;;;;;;;8.10;4.93;;;;;;;20.95;56.44;100798.78;7402151;19;20014;-68
2022/08/04 02:36:57;;;;;;;9.32;4.85;;;;;;;20.92;56.60;100800.78;7399626;19;20018;-68
2022/08/04 02:39:28;;;;;;;6.63;5.18;;;;;;;20.88;56.28;100801.91;7397884;19;20456;-68
2022/08/04 02:41:58;;;;;;;9.40;5.22;;;;;;;20.84;56.23;100801.28;7400834;19;20476;-69
2022/08/04 02:44:29;;;;;;;7.03;4.75;;;;;;;20.80;56.26;100802.41;7398656;19;20023;-68
2022/08/04 02:47:02;;;;;;;5.30;4.80;;;;;;;20.74;56.29;100798.34;7400043;19;20022;-68
2022/08/04 02:49:32;;;;;;;7.03;5.23;;;;;;;20.70;56.64;100795.94;7400861;19;20022;-68
2022/08/04 02:52:01;;;;;;;6.07;5.57;;;;;;;20.66;56.73;100803.25;7399194;19;20449;-68
2022/08/04 02:54:36;;;;;;;6.70;6.03;;;;;;;20.62;56.35;100804.41;7398051;19;20056;-68
2022/08/04 02:57:10;;;;;;;8.70;5.38;;;;;;;20.57;56.55;100795.84;7399071;19;20376;-68
2022/08/04 02:59:53;;;;;;;6.35;5.75;;;;;;;20.52;56.50;100801.47;7401141;19;20027;-68
2022/08/04 03:02:34;;;;;;;6.22;5.68;;;;;;;20.46;56.32;100793.84;7401148;19;20014;-69
2022/08/04 03:05:13;;;;;;;7.15;6.45;;;;;;;20.41;55.98;100799.50;7400883;19;20018;-68
2022/08/04 03:08:02;;;;;;;6.72;6.07;;;;;;;20.37;56.19;100789.09;7398018;19;20025;-68
2022/08/04 03:11:04;;;;;;;7.60;5.30;;;;;;;20.30;56.53;100794.81;7398137;19;20118;-68
2022/08/04 03:13:54;;;;;;;8.85;6.20;;;;;;;20.27;56.58;100794.13;7400504;19;20039;-68
2022/08/04 03:16:46;;;;;;;6.22;5.72;;;;;;;20.21;56.38;100795.38;7398138;19;20033;-68
2022/08/04 03:19:43;;;;;;;8.32;5.78;;;;;;;20.16;56.69;100795.66;7400646;19;20019;-68
2022/08/04 03:22:40;;;;;;;7.53;5.85;;;;;;;20.12;56.72;100803.94;7399257;19;20027;-68
2022/08/04 03:25:32;;;;;;;8.07;6.57;;;;;;;20.08;56.88;100803.28;7395857;19;20014;-69
2022/08/04 03:28:30;;;;;;;6.47;5.88;;;;;;;20.05;56.77;100797.28;7396632;19;20480;-68
2022/08/04 03:31:38;;;;;;;7.97;6.70;;;;;;;20.00;56.77;100800.22;7396541;19;20031;-69
2022/08/04 03:34:26;;;;;;;8.23;6.20;;;;;;;19.96;57.25;100802.19;7395605;19;20082;-69
2022/08/04 03:37:19;;;;;;;7.90;6.47;;;;;;;19.90;57.25;100799.91;7397692;19;20047;-68
2022/08/04 03:40:29;;;;;;;7.72;6.97;;;;;;;19.88;57.21;100803.59;7398510;19;20074;-69
2022/08/04 03:43:39;;;;;;;8.57;7.10;;;;;;;19.83;57.28;100802.09;7398692;19;20019;-69
2022/08/04 03:46:40;;;;;;;7.63;6.80;;;;;;;19.83;56.80;100796.75;7396672;19;20090;-68
2022/08/04 03:49:37;;;;;;;6.90;6.20;;;;;;;19.83;57.36;100795.91;7395241;19;20019;-69
2022/08/04 03:55:24;;;;;;;9.32;6.35;;;;;;;19.81;57.18;100800.44;7398743;19;20039;-69
2022/08/04 03:58:22;;;;;;;6.93;6.22;;;;;;;19.80;56.97;100798.72;7396910;19;20035;-69
2022/08/04 04:01:13;;;;;;;7.50;6.68;;;;;;;19.78;57.23;100803.28;7395771;19;20022;-69
2022/08/04 04:04:04;;;;;;;7.53;6.82;;;;;;;19.77;57.65;100801.56;7397716;19;20027;-69
2022/08/04 04:06:55;;;;;;;7.85;6.30;;;;;;;19.77;57.16;100802.41;7397684;19;20090;-69
2022/08/04 04:10:14;;;;;;;9.77;6.60;;;;;;;19.77;57.33;100804.22;7398076;19;20335;-69
2022/08/04 04:13:07;;;;;;;6.63;5.85;;;;;;;19.76;57.40;100797.19;7398144;19;20019;-69
2022/08/04 04:15:52;;;;;;;7.15;6.45;;;;;;;19.77;57.14;100801.56;7396533;19;20018;-69
2022/08/04 04:18:42;;;;;;;7.47;6.35;;;;;;;19.78;57.14;100803.28;7398532;19;20087;-69
2022/08/04 04:21:37;;;;;;;7.88;6.47;;;;;;;19.77;57.39;100801.56;7399034;19;20082;-69
2022/08/04 04:24:30;;;;;;;11.05;6.30;;;;;;;19.78;57.27;100795.31;7395407;19;20418;-69
2022/08/04 04:27:04;;;;;;;7.33;6.63;;;;;;;19.78;57.82;100798.81;7395108;19;20019;-69
2022/08/04 04:30:02;;;;;;;7.75;5.93;;;;;;;19.81;57.73;100797.78;7395521;19;20018;-69
2022/08/04 04:32:43;;;;;;;7.45;6.68;;;;;;;19.81;57.52;100797.78;7395095;19;20364;-69
2022/08/04 04:35:24;;;;;;;8.55;6.35;;;;;;;19.82;57.85;100802.16;7395231;19;20014;-69
2022/08/04 04:38:29;;;;;;;9.38;6.65;;;;;;;19.84;57.84;100805.59;7395576;19;20074;-69
2022/08/04 04:41:07;;;;;;;8.40;6.18;;;;;;;19.85;58.08;100805.53;7396602;19;20543;-69
2022/08/04 04:44:02;;;;;;;7.10;6.40;;;;;;;19.86;58.25;100798.38;7396834;19;20031;-69
2022/08/04 04:46:42;;;;;;;7.95;6.78;;;;;;;19.88;58.45;100808.94;7396653;19;20022;-69
2022/08/04 04:49:22;;;;;;;8.00;7.20;;;;;;;19.90;58.21;100807.88;7394528;19;20014;-69
2022/08/04 04:51:57;;;;;;;8.95;6.88;;;;;;;19.92;57.99;100800.69;7394460;19;20006;-69
2022/08/04 04:54:34;;;;;;;9.15;6.85;;;;;;;19.95;58.02;100802.31;7396690;19;20091;-69
2022/08/04 04:57:10;;;;;;;13.25;7.50;;;;;;;19.98;58.08;100804.75;7395202;19;20516;-69
2022/08/04 04:59:52;;;;;;;10.30;7.57;;;;;;;20.02;57.99;100806.31;7395345;19;20423;-69
2022/08/04 05:02:49;;;;;;;9.05;6.78;;;;;;;20.07;58.15;100808.69;7393896;19;20023;-69
2022/08/04 05:05:28;;;;;;;12.15;6.53;;;;;;;20.10;58.03;100804.03;7394483;19;20010;-69
2022/08/04 05:08:34;;;;;;;8.23;7.25;;;;;;;20.17;58.33;100809.84;7393853;19;20074;-69
2022/08/04 05:11:24;;;;;;;28.42;21.58;;;;;;;20.21;58.02;100798.06;7395622;19;20484;-69
2022/08/04 05:13:55;;;;;;;85.70;59.13;;;;;;;20.28;57.71;100802.06;7395807;19;20018;-69
2022/08/04 05:16:28;;;;;;;16.92;13.93;;;;;;;20.34;57.88;100804.31;7393659;19;20014;-68
2022/08/04 05:19:18;;;;;;;10.55;9.07;;;;;;;20.41;57.26;100807.47;7395138;19;20014;-68
2022/08/04 05:21:51;;;;;;;15.38;8.98;;;;;;;20.47;57.22;100806.22;7394352;19;20010;-68
2022/08/04 05:24:22;;;;;;;8.65;7.43;;;;;;;20.53;56.72;100805.00;7393379;19;20018;-68
2022/08/04 05:26:57;;;;;;;10.15;7.90;;;;;;;20.59;56.21;100802.81;7394539;19;20035;-68
2022/08/04 05:29:31;;;;;;;11.70;6.93;;;;;;;20.65;55.72;100806.91;7396734;19;20015;-68
2022/08/04 05:32:03;;;;;;;11.68;7.18;;;;;;;20.72;55.59;100813.56;7394101;19;20022;-69
2022/08/04 05:34:42;;;;;;;7.47;6.78;;;;;;;20.79;55.03;100809.56;7395656;19;20082;-69
2022/08/04 05:37:13;;;;;;;8.07;6.63;;;;;;;20.85;55.00;100808.31;7392895;19;20084;-70
2022/08/04 05:39:47;;;;;;;7.15;6.32;;;;;;;20.92;54.71;100808.78;7394968;19;20019;-69
2022/08/04 05:42:16;;;;;;;6.75;6.15;;;;;;;20.97;54.51;100807.53;7395311;19;20074;-69
2022/08/04 05:44:45;;;;;;;7.55;6.22;;;;;;;21.03;54.41;100797.41;7393395;19;20031;-69
2022/08/04 05:47:17;;;;;;;6.38;5.75;;;;;;;21.11;54.15;100806.63;7393625;19;20018;-69
2022/08/04 05:49:48;;;;;;;7.95;6.28;;;;;;;21.18;53.95;100807.09;7392994;19;20023;-69
2022/08/04 05:52:18;;;;;;;7.57;6.53;;;;;;;21.26;53.84;100806.59;7392649;19;20014;-69
2022/08/04 05:54:48;;;;;;;6.65;5.88;;;;;;;21.34;53.89;100811.41;7392585;19;20027;-69
2022/08/04 05:57:17;;;;;;;6.22;5.55;;;;;;;21.41;53.80;100804.72;7393063;19;20078;-69
2022/08/04 05:59:48;;;;;;;6.18;5.65;;;;;;;21.48;53.74;100806.00;7392287;19;20383;-69
2022/08/04 06:02:18;;;;;;;10.07;5.70;;;;;;;21.55;53.73;100806.47;7394305;19;20006;-69
2022/08/04 06:04:52;;;;;;;5.80;5.13;;;;;;;21.62;53.44;100800.66;7391728;19;20015;-69
2022/08/04 06:07:21;;;;;;;6.32;5.70;;;;;;;21.72;53.63;100808.03;7393019;19;20082;-69
2022/08/04 06:09:50;;;;;;;6.32;5.72;;;;;;;21.79;53.55;100806.66;7394080;19;20090;-69
2022/08/04 06:12:23;;;;;;;6.22;5.57;;;;;;;21.87;53.53;100809.63;7398093;19;20022;-70
2022/08/04 06:14:55;;;;;;;5.80;5.30;;;;;;;21.93;52.80;100808.38;7395319;19;20011;-69
2022/08/04 06:17:27;;;;;;;9.02;5.65;;;;;;;22.02;52.94;100806.88;7392897;19;20393;-69
2022/08/04 06:19:59;;;;;;;5.85;5.43;;;;;;;22.10;52.50;100805.41;7393892;19;20495;-69
2022/08/04 06:22:30;;;;;;;5.30;4.90;;;;;;;22.19;52.66;100808.38;7392566;19;20022;-69
2022/08/04 06:25:00;;;;;;;5.40;4.90;;;;;;;22.27;52.75;100811.38;7392685;19;20039;-69
2022/08/04 06:27:31;;;;;;;5.95;5.30;;;;;;;22.34;52.12;100803.78;7391938;19;20040;-69
2022/08/04 06:30:00;;;;;;;6.05;5.05;;;;;;;22.43;52.41;100811.16;7392803;19;20028;-69
2022/08/04 06:32:35;;;;;;;6.80;4.88;;;;;;;22.51;52.21;100803.47;7394057;19;20021;-69
2022/08/04 06:35:09;;;;;;;5.47;4.70;;;;;;;22.58;52.20;100801.22;7393915;19;20015;-69
2022/08/04 06:37:39;;;;;;;5.65;5.07;;;;;;;22.70;51.68;100794.97;7391583;19;20018;-69
2022/08/04 06:40:11;;;;;;;5.45;4.93;;;;;;;22.80;51.77;100800.53;7394071;19;20018;-70
2022/08/04 06:42:40;;;;;;;6.57;5.53;;;;;;;22.92;51.38;100796.09;7392977;19;20480;-69
2022/08/04 06:45:11;;;;;;;6.05;5.45;;;;;;;23.05;51.79;100804.06;7390776;19;20497;-69
2022/08/04 06:47:42;;;;;;;5.90;4.60;;;;;;;23.17;51.58;100805.03;7391572;19;20027;-69
2022/08/04 06:50:14;;;;;;;6.55;4.13;;;;;;;23.27;51.54;100806.88;7391337;19;20035;-69
2022/08/04 06:52:45;;;;;;;4.90;3.92;;;;;;;23.40;50.86;100798.81;7391525;19;20018;-69
2022/08/04 06:55:15;;;;;;;4.13;3.70;;;;;;;23.54;50.44;100800.47;7393906;19;20018;-69
2022/08/04 06:57:46;;;;;;;12.50;3.80;;;;;;;23.68;50.31;100785.16;7391421;19;20376;-69
2022/08/04 07:00:18;;;;;;;3.90;3.28;;;;;;;23.82;50.18;100784.94;7400154;19;20501;-69
2022/08/04 07:02:51;;;;;;;5.22;3.45;;;;;;;23.94;49.82;100793.03;7397571;19;20488;-69
2022/08/04 07:05:23;;;;;;;5.30;3.60;;;;;;;24.07;48.92;100788.41;7398496;19;20035;-69
2022/08/04 07:07:52;;;;;;;3.50;3.20;;;;;;;24.25;48.84;100783.44;7397722;19;20082;-69
2022/08/04 07:10:22;;;;;;;4.65;3.15;;;;;;;24.43;48.24;100786.50;7397061;19;20018;-69
2022/08/04 07:12:51;;;;;;;6.03;3.15;;;;;;;24.56;47.59;100779.16;7397733;19;20078;-69
2022/08/04 07:15:21;;;;;;;3.72;3.38;;;;;;;24.75;47.04;100793.81;7396896;19;20018;-69
2022/08/04 07:17:51;;;;;;;3.35;3.10;;;;;;;24.88;46.62;100783.78;7397394;19;20026;-69
2022/08/04 07:20:22;;;;;;;4.45;2.90;;;;;;;25.01;46.48;100788.13;7395926;19;20014;-68
2022/08/04 07:22:51;;;;;;;3.67;3.38;;;;;;;25.13;46.13;100789.78;7397685;19;20027;-69
2022/08/04 07:25:21;;;;;;;4.18;3.30;;;;;;;25.24;45.52;100793.41;7397827;19;20043;-69
2022/08/04 07:27:49;;;;;;;3.97;3.45;;;;;;;25.38;45.67;100795.84;7396561;19;20484;-69
2022/08/04 07:30:19;;;;;;;4.10;3.53;;;;;;;25.49;45.24;100793.13;7396946;19;20023;-69
2022/08/04 07:32:48;;;;;;;3.58;2.88;;;;;;;25.60;44.81;100784.13;7397012;19;20029;-69
2022/08/04 07:35:17;;;;;;;3.30;3.00;;;;;;;25.70;44.94;100789.59;7396182;19;20081;-69
2022/08/04 07:37:48;;;;;;;5.18;3.35;;;;;;;25.81;44.52;100786.81;7396903;19;20086;-69
2022/08/04 07:40:17;;;;;;;3.42;2.92;;;;;;;25.92;44.46;100785.91;7396457;19;20022;-69
2022/08/04 07:42:46;;;;;;;4.20;2.92;;;;;;;26.02;44.45;100783.25;7396161;19;20019;-69
2022/08/04 07:45:19;;;;;;;4.28;3.78;;;;;;;26.13;44.09;100788.59;7396004;19;20027;-68
2022/08/04 07:47:47;;;;;;;5.38;3.45;;;;;;;26.21;43.72;100776.31;7396662;19;20023;-68
2022/08/04 07:50:16;;;;;;;3.47;3.17;;;;;;;26.32;43.47;100776.22;7395580;19;20100;-69
2022/08/04 07:52:48;;;;;;;3.53;3.22;;;;;;;26.44;43.17;100785.91;7396904;19;20090;-69
2022/08/04 07:55:18;;;;;;;3.45;3.08;;;;;;;26.53;43.13;100788.75;7398146;19;20015;-69
2022/08/04 07:57:46;;;;;;;3.67;3.00;;;;;;;26.62;42.96;100786.09;7396498;19;20022;-69
2022/08/04 08:00:16;;;;;;;3.78;3.25;;;;;;;26.70;42.23;100782.72;7398061;19;20010;-69
2022/08/04 08:02:49;;;;;;;5.30;3.38;;;;;;;26.80;41.98;100789.03;7398927;19;20023;-69
2022/08/04 08:05:20;;;;;;;6.03;3.90;;;;;;;26.90;42.17;100786.34;7395417;19;20015;-69
2022/08/04 08:07:53;;;;;;;5.88;3.13;;;;;;;27.02;41.63;100778.13;7396432;19;20476;-69
2022/08/04 08:10:22;;;;;;;5.25;2.80;;;;;;;27.11;41.26;100778.16;7396423;19;20019;-69
2022/08/04 08:12:52;;;;;;;4.25;3.25;;;;;;;27.19;40.94;100780.13;7395479;19;20492;-70
2022/08/04 08:15:21;;;;;;;2.97;2.78;;;;;;;27.28;40.36;100775.75;7397987;19;20014;-69
2022/08/04 08:17:50;;;;;;;4.13;3.58;;;;;;;27.38;40.14;100776.59;7396029;19;20026;-69
2022/08/04 08:20:18;;;;;;;4.47;2.88;;;;;;;27.46;40.11;100774.09;7395719;19;20018;-69
2022/08/04 08:22:47;;;;;;;5.65;3.30;;;;;;;27.56;39.87;100784.00;7395593;19;20022;-69
2022/08/04 08:25:18;;;;;;;3.28;2.63;;;;;;;27.65;39.53;100775.03;7395651;19;20078;-69
2022/08/04 08:27:46;;;;;;;3.03;2.72;;;;;;;27.75;39.21;100769.63;7395438;19;20037;-69
2022/08/04 08:30:15;;;;;;;3.83;3.28;;;;;;;27.85;38.78;100766.91;7397024;19;20035;-69
2022/08/04 08:32:43;;;;;;;5.95;2.78;;;;;;;27.93;38.80;100759.81;7395064;19;20019;-69
2022/08/04 08:35:12;;;;;;;3.15;2.90;;;;;;;28.04;38.42;100769.56;7396623;19;20023;-69
2022/08/04 08:37:47;;;;;;;4.65;2.58;;;;;;;28.14;38.44;100758.75;7395054;19;20041;-69
2022/08/04 08:40:31;;;;;;;3.25;2.55;;;;;;;28.25;37.91;100768.53;7395159;19;20015;-69
2022/08/04 08:43:26;;;;;;;3.15;2.85;;;;;;;28.35;37.51;100760.41;7395413;19;20006;-69
2022/08/04 08:46:30;;;;;;;3.30;3.00;;;;;;;28.45;37.36;100761.19;7394325;19;20536;-69
2022/08/04 08:49:24;;;;;;;3.20;2.90;;;;;;;28.54;37.05;100760.28;7393901;19;20411;-69
2022/08/04 08:52:05;;;;;;;2.65;2.30;;;;;;;28.65;37.07;100751.13;7393926;19;20355;-69
2022/08/04 08:55:05;;;;;;;3.00;2.70;;;;;;;28.75;37.03;100760.06;7393945;19;20011;-69
2022/08/04 08:57:59;;;;;;;2.95;2.50;;;;;;;28.88;36.87;100758.84;7394937;19;20023;-69
2022/08/04 09:00:30;;;;;;;;;;;;;;;28.97;36.61;100754.38;7396426;19;20527;-69
2022/08/04 09:03:23;;;;;;;3.60;2.50;;;;;;;29.07;36.02;100752.44;7393819;19;19982;-68
2022/08/04 09:06:06;;;;;;;3.40;3.10;;;;;;;29.14;36.06;100758.91;7394228;19;20011;-69
2022/08/04 09:08:47;;;;;;;;;;;;;;;29.20;36.15;100755.59;7396874;19;20481;-68
2022/08/04 09:11:20;;;;;;;3.30;2.47;;;;;;;29.29;36.00;100753.84;7394728;19;20346;-69
2022/08/04 09:13:56;;;;;;;3.70;2.38;;;;;;;29.38;35.55;100762.84;7396505;19;20039;-68
2022/08/04 09:16:33;;;;;;;2.60;2.40;;;;;;;29.47;35.49;100759.25;7395899;19;20022;-69
2022/08/04 09:19:09;;;;;;;4.68;2.67;;;;;;;29.56;35.53;100760.16;7395984;19;20033;-68
2022/08/04 09:21:42;;;;;;;2.80;2.60;;;;;;;29.64;34.97;100762.91;7393184;19;20033;-68
2022/08/04 09:24:18;;;;;;;3.95;2.17;;;;;;;29.72;35.06;100754.00;7396255;19;20083;-68
2022/08/04 09:26:52;;;;;;;3.25;2.95;;;;;;;29.78;34.91;100755.22;7393791;19;20015;-68
2022/08/04 09:29:35;;;;;;;6.43;2.90;;;;;;;29.85;34.83;100753.56;7395438;19;20018;-68
2022/08/04 09:32:10;;;;;;;;;;;;;;;29.92;34.49;100756.53;7394820;19;20094;-69
2022/08/04 09:34:49;;;;;;;2.92;2.53;;;;;;;30.02;34.28;100749.97;7394123;19;19918;-68
2022/08/04 09:37:26;;;;;;;3.28;2.97;;;;;;;30.11;34.48;100750.03;7394127;19;20074;-67
2022/08/04 09:40:05;;;;;;;3.75;3.00;;;;;;;30.20;34.28;100747.22;7395273;19;20014;-68
2022/08/04 09:42:43;;;;;;;3.45;2.70;;;;;;;30.28;33.36;100746.41;7397948;19;20021;-68
2022/08/04 09:45:21;;;;;;;2.67;2.40;;;;;;;30.39;33.41;100747.94;7396308;19;20022;-68
2022/08/04 09:47:54;;;;;;;4.18;2.30;;;;;;;30.47;33.38;100749.81;7392461;19;20078;-68
2022/08/04 09:50:35;;;;;;;2.70;2.50;;;;;;;30.54;32.60;100748.19;7393746;19;20107;-68
2022/08/04 09:53:15;;;;;;;4.05;2.67;;;;;;;30.62;33.05;100748.25;7393319;19;20023;-67
2022/08/04 09:55:52;;;;;;;3.28;2.33;;;;;;;30.68;32.64;100747.56;7395437;19;20030;-67
2022/08/04 09:58:30;;;;;;;2.33;2.13;;;;;;;30.79;32.32;100743.69;7395109;19;20031;-67
2022/08/04 10:01:04;;;;;;;6.20;2.60;;;;;;;30.89;32.17;100738.13;7395356;19;20039;-68
2022/08/04 10:03:36;;;;;;;5.22;2.95;;;;;;;30.99;32.06;100735.28;7394337;19;20354;-68
2022/08/04 10:06:33;;;;;;;4.97;2.50;;;;;;;31.10;31.28;100731.41;7393605;19;20018;-68
2022/08/04 10:09:14;;;;;;;2.55;2.22;;;;;;;31.22;31.29;100729.22;7393612;19;20364;-68
2022/08/04 10:11:56;;;;;;;2.38;2.17;;;;;;;31.33;30.81;100734.31;7392959;19;20035;-68
2022/08/04 10:14:40;;;;;;;5.67;2.50;;;;;;;31.43;31.12;100731.41;7394517;19;20015;-68
2022/08/04 10:17:27;;;;;;;2.30;2.10;;;;;;;31.49;30.84;100718.03;7393321;19;20475;-68
2022/08/04 10:20:11;;;;;;;3.00;2.22;;;;;;;31.58;30.73;100720.72;7392717;19;20040;-72
2022/08/04 10:22:51;;;;;;;3.42;2.30;;;;;;;31.65;30.50;100717.16;7391332;19;20507;-70
2022/08/04 10:25:31;;;;;;;3.30;2.70;;;;;;;31.76;30.17;100709.69;7393450;19;20022;-71
2022/08/04 10:28:04;;;;;;;2.90;2.60;;;;;;;31.84;30.12;100699.66;7392297;19;20018;-70
2022/08/04 10:30:37;;;;;;;4.20;2.53;;;;;;;31.96;30.03;100702.00;7392130;19;20142;-70
2022/08/04 10:33:19;;;;;;;4.35;2.95;;;;;;;32.08;29.85;100699.75;7392704;19;20090;-68
2022/08/04 10:35:53;;;;;;;5.25;2.50;;;;;;;32.21;30.11;100697.34;7400785;19;20073;-70
2022/08/04 10:38:27;;;;;;;5.82;2.50;;;;;;;32.36;29.37;100702.88;7401450;19;20028;-70
2022/08/04 10:41:03;;;;;;;2.55;2.35;;;;;;;32.47;29.41;100701.63;7401192;19;20022;-70
2022/08/04 10:43:44;;;;;;;5.05;2.42;;;;;;;32.55;28.51;100698.84;7400222;19;20018;-71
2022/08/04 10:46:20;;;;;;;3.53;2.50;;;;;;;32.70;28.54;100695.38;7397710;19;20070;-69
2022/08/04 10:48:58;;;;;;;2.58;2.38;;;;;;;32.79;28.10;100689.72;7398158;19;20053;-69
2022/08/04 10:51:35;;;;;;;7.00;2.42;;;;;;;32.89;27.91;100686.75;7397739;19;20393;-69
2022/08/04 10:54:07;;;;;;;5.68;2.67;;;;;;;33.01;27.92;100689.06;7400798;19;20031;-68
2022/08/04 10:56:41;;;;;;;3.30;2.33;;;;;;;33.12;27.23;100685.91;7399735;19;20019;-69
2022/08/04 10:59:14;;;;;;;4.15;2.40;;;;;;;33.20;26.85;100677.69;7400699;19;20074;-69
2022/08/04 11:01:48;;;;;;;6.93;2.22;;;;;;;33.34;27.09;100678.78;7401067;19;20032;-69
2022/08/04 11:04:32;;;;;;;4.57;2.42;;;;;;;33.43;26.21;100679.53;7400159;19;20020;-70
2022/08/04 11:07:02;;;;;;;5.82;1.92;;;;;;;33.51;26.88;100675.88;7397177;19;20014;-69
2022/08/04 11:09:33;;;;;;;7.03;2.90;;;;;;;33.57;26.71;100683.31;7399961;19;20037;-69
2022/08/04 11:12:09;;;;;;;2.83;2.20;;;;;;;33.67;26.60;100683.00;7397348;19;20036;-69
2022/08/04 11:14:42;;;;;;;2.90;2.33;;;;;;;33.75;26.29;100680.19;7396415;19;20017;-70
2022/08/04 11:17:17;;;;;;;3.42;2.03;;;;;;;33.85;26.12;100680.78;7397679;19;20037;-71
2022/08/04 11:19:54;;;;;;;4.80;2.30;;;;;;;33.94;25.54;100679.66;7396127;19;20484;-70
2022/08/04 11:22:27;;;;;;;1.85;1.75;;;;;;;34.05;24.67;100677.50;7395975;19;20521;-71
2022/08/04 11:25:09;;;;;;;5.40;2.15;;;;;;;34.10;23.90;100683.22;7396408;19;20039;-71
2022/08/04 11:27:45;;;;;;;2.60;2.38;;;;;;;34.18;24.39;100676.81;7396132;19;20017;-71
2022/08/04 11:30:16;;;;;;;4.03;2.30;;;;;;;34.24;24.41;100679.59;7396265;19;20502;-71
2022/08/04 11:32:48;;;;;;;2.38;2.17;;;;;;;34.35;24.00;100672.00;7399340;19;20018;-71
2022/08/04 11:35:32;;;;;;;5.75;1.95;;;;;;;34.43;23.60;100669.19;7399367;19;20033;-71
2022/08/04 11:38:10;;;;;;;3.28;2.10;;;;;;;34.53;23.71;100671.59;7395154;19;20015;-71
2022/08/04 11:40:44;;;;;;;3.20;1.67;;;;;;;34.66;23.47;100671.72;7398305;19;20014;-70
2022/08/04 11:43:21;;;;;;;2.58;1.70;;;;;;;34.83;23.74;100666.00;7398277;19;20041;-70
2022/08/04 11:45:56;;;;;;;3.33;2.25;;;;;;;34.98;22.94;100676.84;7397184;19;20588;-70
2022/08/04 11:48:31;;;;;;;1.83;1.73;;;;;;;35.12;22.03;100678.66;7398310;19;20483;-70
2022/08/04 11:51:04;;;;;;;6.13;1.80;;;;;;;35.24;21.94;100668.88;7396304;19;20426;-71
2022/08/04 11:53:34;;;;;;;4.53;1.70;;;;;;;35.40;22.09;100672.41;7396557;19;20036;-70
2022/08/04 11:56:07;;;;;;;3.78;1.33;;;;;;;35.53;21.48;100674.38;7396223;19;20017;-70
2022/08/04 11:58:35;;;;;;;2.45;1.70;;;;;;;35.64;21.21;100657.44;7398588;19;20062;-71
2022/08/04 12:01:13;;;;;;;4.40;1.65;;;;;;;35.76;21.54;100656.88;7398530;19;20015;-70
2022/08/04 12:03:59;;;;;;;2.55;1.85;;;;;;;35.87;20.68;100661.78;7397285;19;20021;-70
2022/08/04 12:06:38;;;;;;;2.33;1.52;;;;;;;35.96;20.33;100666.00;7394650;19;20484;-70
2022/08/04 12:09:14;;;;;;;3.53;1.60;;;;;;;36.03;20.69;100666.03;7395417;19;20011;-70
2022/08/04 12:11:53;;;;;;;3.10;2.42;;;;;;;36.11;20.59;100660.41;7398173;19;20034;-70
2022/08/04 12:14:29;;;;;;;3.90;1.80;;;;;;;36.22;20.91;100649.94;7397944;19;20014;-70
2022/08/04 12:17:01;;;;;;;5.80;1.42;;;;;;;36.30;20.51;100649.75;7396605;19;20094;-70
2022/08/04 12:19:40;;;;;;;6.43;1.85;;;;;;;36.41;20.23;100656.53;7395379;19;20018;-70